createdAt,value
2023-09-04T00:04:44.482Z,2.00
2023-09-04T00:09:48.209Z,2.00
2023-09-04T00:14:53.104Z,2.30
2023-09-04T00:19:56.564Z,2.00
2023-09-04T00:25:00.039Z,2.20
2023-09-04T00:30:05.360Z,2.08
2023-09-04T00:35:14.933Z,1.70
2023-09-04T00:40:18.820Z,1.80
2023-09-04T00:45:24.269Z,1.80
2023-09-04T00:50:27.997Z,1.60
2023-09-04T00:55:31.919Z,1.60
2023-09-04T01:00:36.840Z,1.77
2023-09-04T01:05:40.432Z,1.40
2023-09-04T01:10:53.108Z,1.50
2023-09-04T01:15:59.422Z,1.63
2023-09-04T01:21:05.531Z,1.20
2023-09-04T01:26:15.590Z,1.20
2023-09-04T01:31:25.381Z,1.35
2023-09-04T01:36:32.620Z,1.17
2023-09-04T01:41:39.459Z,1.55
2023-09-04T01:46:43.194Z,1.20
2023-09-04T01:51:48.123Z,1.30
2023-09-04T01:57:16.403Z,1.40
2023-09-04T02:02:20.067Z,1.27
2023-09-04T02:07:25.018Z,1.23
2023-09-04T02:12:28.611Z,1.30
2023-09-04T02:17:32.422Z,1.25
2023-09-04T02:22:37.461Z,1.13
2023-09-04T02:27:40.963Z,1.30
2023-09-04T02:32:45.406Z,1.10
2023-09-04T02:37:50.353Z,1.30
2023-09-04T02:42:53.996Z,1.20
2023-09-04T02:47:57.648Z,1.30
2023-09-04T02:53:02.566Z,1.40
2023-09-04T02:58:08.602Z,1.20
2023-09-04T03:03:14.178Z,1.20
2023-09-04T03:08:19.289Z,1.10
2023-09-04T03:13:22.798Z,1.10
2023-09-04T03:18:26.820Z,1.00
2023-09-04T03:23:32.340Z,1.20
2023-09-04T03:28:36.024Z,1.30
2023-09-04T03:33:40.689Z,1.48
2023-09-04T03:38:47.652Z,1.00
2023-09-04T03:43:52.035Z,1.38
2023-09-04T03:48:56.125Z,1.27
2023-09-04T03:54:03.728Z,1.17
2023-09-04T03:59:07.832Z,1.20
2023-09-04T04:04:12.794Z,1.35
2023-09-04T04:09:18.629Z,1.70
2023-09-04T04:14:22.095Z,2.08
2023-09-04T04:19:25.574Z,1.48
2023-09-04T04:24:31.891Z,1.80
2023-09-04T04:29:35.644Z,1.50
2023-09-04T04:34:39.292Z,1.70
2023-09-04T04:39:44.302Z,1.52
2023-09-04T04:44:47.855Z,1.73
2023-09-04T04:49:52.837Z,1.42
2023-09-04T04:54:58.019Z,1.17
2023-09-04T05:00:01.917Z,1.45
2023-09-04T05:05:09.514Z,1.30
2023-09-04T05:10:15.132Z,1.50
2023-09-04T05:15:19.829Z,2.42
2023-09-04T05:20:24.796Z,1.05
2023-09-04T05:25:29.735Z,1.38
2023-09-04T05:30:35.281Z,1.27
2023-09-04T05:35:38.819Z,1.50
2023-09-04T05:40:43.824Z,1.38
2023-09-04T05:45:47.383Z,1.10
2023-09-04T05:50:50.901Z,1.38
2023-09-04T05:56:10.522Z,1.40
2023-09-04T06:01:17.893Z,1.52
2023-09-04T06:06:21.460Z,1.30
2023-09-04T06:11:26.450Z,1.63
2023-09-04T06:16:30.010Z,1.50
2023-09-04T06:21:33.801Z,1.70
2023-09-04T06:26:41.221Z,1.70
2023-09-04T06:31:44.858Z,1.60
2023-09-04T06:36:53.925Z,1.67
2023-09-04T06:41:58.808Z,2.00
2023-09-04T06:47:07.371Z,1.73
2023-09-04T06:52:13.769Z,1.73
2023-09-04T06:57:19.038Z,1.80
2023-09-04T07:02:22.582Z,2.03
2023-09-04T07:07:28.156Z,2.75
2023-09-04T07:12:37.240Z,1.70
2023-09-04T07:17:40.829Z,2.20
2023-09-04T07:22:44.426Z,1.90
2023-09-04T07:34:47.641Z,2.00
2023-09-04T07:39:57.831Z,1.83
2023-09-04T07:45:03.715Z,2.13
2023-09-04T07:50:10.215Z,1.80
2023-09-04T07:55:13.927Z,2.15
2023-09-04T08:00:23.135Z,2.22
2023-09-04T08:05:28.465Z,2.00
2023-09-04T08:10:32.306Z,2.10
2023-09-04T08:15:36.059Z,1.90
2023-09-04T08:20:41.845Z,1.90
2023-09-04T08:25:45.602Z,1.95
2023-09-04T08:30:49.273Z,1.65
2023-09-04T08:35:54.596Z,1.90
2023-09-04T08:41:01.923Z,2.33
2023-09-04T08:46:09.457Z,1.77
2023-09-04T08:51:21.255Z,1.88
2023-09-04T09:25:08.355Z,1.70
2023-09-04T09:30:14.591Z,1.70
2023-09-04T09:35:27.113Z,1.65
2023-09-04T09:41:28.770Z,2.17
2023-09-04T10:00:59.491Z,2.30
2023-09-04T10:06:06.721Z,2.47
2023-09-04T10:11:13.460Z,2.38
2023-09-04T10:16:29.931Z,2.00
2023-09-04T10:21:36.530Z,2.10
2023-09-04T10:26:56.048Z,2.40
2023-09-04T10:32:02.816Z,2.30
2023-09-04T10:37:06.933Z,2.28
2023-09-04T10:42:11.695Z,2.63
2023-09-04T11:44:38.926Z,2.55
2023-09-04T11:49:52.265Z,2.13
2023-09-04T11:55:03.736Z,2.75
2023-09-04T12:00:09.883Z,3.08
2023-09-04T12:05:20.003Z,2.58
2023-09-04T12:10:27.039Z,2.70
2023-09-04T12:24:22.696Z,3.10
2023-09-04T12:30:14.998Z,3.28
2023-09-04T12:42:26.405Z,3.13
2023-09-04T13:02:29.773Z,3.08
2023-09-04T13:07:34.310Z,2.88
2023-09-04T13:12:38.700Z,2.60
2023-09-04T13:17:44.736Z,2.83
2023-09-04T13:22:48.981Z,3.42
2023-09-04T13:27:52.453Z,3.13
2023-09-04T13:32:57.373Z,3.28
2023-09-04T13:38:00.950Z,3.70
2023-09-04T13:43:04.606Z,3.53
2023-09-04T13:48:10.094Z,3.33
2023-09-04T13:53:13.756Z,3.47
2023-09-04T13:58:17.326Z,4.18
2023-09-04T14:03:22.248Z,3.65
2023-09-04T14:08:25.756Z,3.55
2023-09-04T14:13:29.544Z,3.90
2023-09-04T14:18:34.753Z,3.67
2023-09-04T14:23:38.213Z,3.72
2023-09-04T14:28:41.819Z,4.10
2023-09-04T14:33:46.796Z,3.65
2023-09-04T14:38:52.518Z,3.63
2023-09-04T14:43:56.055Z,3.60
2023-09-04T14:49:01.545Z,3.60
2023-09-04T14:54:05.285Z,3.90
2023-09-04T14:59:08.779Z,3.83
2023-09-04T15:04:14.312Z,4.38
2023-09-04T15:09:17.921Z,4.43
2023-09-04T15:14:21.502Z,5.75
2023-09-04T15:19:26.466Z,4.63
2023-09-04T15:24:29.929Z,4.13
2023-09-04T15:29:33.422Z,5.15
2023-09-04T15:34:39.272Z,4.50
2023-09-04T15:39:43.006Z,4.60
2023-09-04T15:44:46.552Z,4.30
2023-09-04T15:49:51.479Z,4.53
2023-09-04T15:54:55.272Z,4.35
2023-09-04T15:59:58.811Z,4.75
2023-09-04T16:05:03.795Z,4.18
2023-09-04T16:10:08.359Z,4.28
2023-09-04T16:15:12.977Z,4.32
2023-09-04T16:20:18.238Z,4.38
2023-09-04T16:25:21.699Z,4.32
2023-09-04T16:30:25.388Z,4.60
2023-09-04T16:35:30.397Z,4.53
2023-09-04T16:40:33.989Z,4.97
2023-09-04T16:45:38.256Z,4.75
2023-09-04T16:50:43.213Z,5.03
2023-09-04T16:55:46.749Z,4.95
2023-09-04T17:00:50.286Z,5.20
2023-09-04T17:05:55.404Z,4.90
2023-09-04T17:11:00.268Z,4.63
2023-09-04T17:16:04.057Z,4.43
2023-09-04T17:21:09.692Z,4.65
2023-09-04T17:26:13.337Z,5.20
2023-09-04T17:31:17.468Z,4.45
2023-09-04T17:36:22.953Z,4.20
2023-09-04T17:41:27.022Z,4.55
2023-09-04T17:46:30.529Z,4.40
2023-09-04T17:51:35.701Z,4.40
2023-09-04T17:56:39.289Z,4.38
2023-09-04T18:01:42.874Z,4.57
2023-09-04T18:06:47.931Z,4.72
2023-09-04T18:11:51.532Z,4.90
2023-09-04T18:16:56.131Z,5.10
2023-09-04T18:22:01.510Z,5.75
2023-09-04T18:27:06.445Z,6.10
2023-09-04T18:32:09.957Z,6.63
2023-09-04T18:37:14.987Z,6.63
2023-09-04T18:42:18.536Z,8.00
2023-09-04T18:47:22.092Z,7.68
2023-09-04T18:52:27.044Z,8.50
2023-09-04T18:57:31.474Z,8.93
2023-09-04T19:02:35.032Z,9.30
2023-09-04T19:07:42.229Z,9.23
2023-09-04T19:12:46.856Z,9.65
2023-09-04T19:17:50.651Z,9.30
2023-09-04T19:22:55.793Z,10.32
2023-09-04T19:27:59.456Z,9.45
2023-09-04T19:33:04.206Z,9.85
2023-09-04T19:38:09.173Z,10.15
2023-09-04T19:43:12.714Z,10.15
2023-09-04T19:48:16.223Z,10.20
2023-09-04T19:53:21.167Z,9.27
2023-09-04T19:58:26.454Z,10.20
2023-09-04T20:03:30.539Z,9.48
2023-09-04T20:08:36.773Z,9.13
2023-09-04T20:13:42.135Z,9.43
2023-09-04T20:18:45.905Z,9.85
2023-09-04T20:23:55.623Z,9.88
2023-09-04T20:28:59.413Z,9.40
2023-09-04T20:34:02.852Z,8.35
2023-09-04T20:39:08.241Z,9.55
2023-09-04T20:44:11.952Z,9.77
2023-09-04T20:49:15.579Z,9.40
2023-09-04T20:54:20.660Z,9.48
2023-09-04T20:59:24.216Z,9.10
2023-09-04T21:04:27.702Z,8.65
2023-09-04T21:09:31.418Z,9.50
2023-09-04T21:14:52.366Z,8.45
2023-09-04T21:20:13.632Z,9.27
2023-09-04T21:25:36.084Z,7.80
2023-09-04T21:30:58.393Z,8.45
2023-09-04T21:36:19.286Z,8.55
2023-09-04T21:41:41.754Z,8.48
2023-09-04T21:47:02.741Z,8.30
2023-09-04T21:52:24.284Z,7.82
2023-09-04T21:57:46.666Z,8.52
2023-09-04T22:03:07.696Z,7.82
2023-09-04T22:08:28.920Z,8.02
2023-09-04T22:13:51.518Z,7.18
2023-09-04T22:19:12.398Z,8.07
2023-09-04T22:24:33.491Z,8.10
2023-09-04T22:29:56.847Z,7.10
2023-09-04T22:35:17.755Z,7.67
2023-09-04T22:40:38.728Z,7.57
2023-09-04T22:46:01.222Z,7.93
2023-09-04T22:51:22.315Z,8.05
2023-09-04T22:56:43.121Z,7.63
2023-09-04T23:02:05.708Z,7.93
2023-09-04T23:07:26.496Z,6.78
2023-09-04T23:12:47.424Z,7.63
2023-09-04T23:18:09.746Z,8.15
2023-09-04T23:23:15.164Z,8.45
2023-09-04T23:28:23.943Z,8.48
2023-09-04T23:33:46.627Z,8.55
2023-09-04T23:39:09.313Z,8.20
2023-09-04T23:44:26.697Z,7.28
2023-09-04T23:49:31.980Z,8.38
2023-09-04T23:54:35.575Z,8.32
2023-09-04T23:59:39.870Z,7.65
